Time;durP1;ratioP1;P1;durP2;ratioP2;P2;SDS_P1;SDS_P2;PMS_P1;PMS_P2;Temp;Humidity;BMP_temperature;BMP_pressure;BME280_temperature;BME280_humidity;BME280_pressure;Samples;Min_cycle;Max_cycle;Signal;HPM_P1;HPM_P2
2022/03/09 00:01:39;;;;;;;104.50;14.77;;;;;;;;;;5054203;28;20190;-65
2022/03/09 00:04:05;;;;;;;82.97;12.07;;;;;;;;;;5046734;28;20186;-65
2022/03/09 00:06:31;;;;;;;88.67;12.73;;;;;;;;;;5054131;28;20183;-65
2022/03/09 00:08:57;;;;;;;75.43;11.40;;;;;;;;;;5054807;28;20249;-65
2022/03/09 00:11:23;;;;;;;93.57;13.40;;;;;;;;;;5048253;28;20207;-65
2022/03/09 00:13:49;;;;;;;100.07;14.07;;;;;;;;;;5051441;28;20465;-65
2022/03/09 00:16:15;;;;;;;97.73;13.80;;;;;;;;;;5035820;28;20248;-66
2022/03/09 00:18:41;;;;;;;118.73;16.33;;;;;;;;;;5050632;28;20195;-66
2022/03/09 00:21:07;;;;;;;116.80;16.17;;;;;;;;;;5050101;28;20826;-65
2022/03/09 00:23:33;;;;;;;94.83;13.73;;;;;;;;;;5050445;28;20195;-66
2022/03/09 00:25:59;;;;;;;112.03;15.40;;;;;;;;;;5045312;28;20187;-66
2022/03/09 00:28:25;;;;;;;61.53;9.60;;;;;;;;;;5053522;28;20202;-66
2022/03/09 00:30:51;;;;;;;86.73;12.57;;;;;;;;;;5058671;28;20214;-65
2022/03/09 00:33:16;;;;;;;94.93;13.67;;;;;;;;;;5054381;28;20194;-65
2022/03/09 00:35:44;;;;;;;105.97;14.83;;;;;;;;;;5051622;28;20187;-65
2022/03/09 00:38:10;;;;;;;92.77;13.27;;;;;;;;;;5050760;28;20225;-66
2022/03/09 00:40:36;;;;;;;96.67;13.63;;;;;;;;;;5054614;28;20596;-66
2022/03/09 00:43:02;;;;;;;95.07;13.47;;;;;;;;;;5050894;28;20336;-65
2022/03/09 00:45:28;;;;;;;158.83;21.00;;;;;;;;;;5047969;28;20190;-65
2022/03/09 00:47:54;;;;;;;102.33;14.27;;;;;;;;;;5048868;28;20249;-65
2022/03/09 00:50:20;;;;;;;85.37;12.33;;;;;;;;;;5055534;28;20210;-65
2022/03/09 00:52:47;;;;;;;122.37;16.67;;;;;;;;;;5037290;28;20194;-65
2022/03/09 00:55:13;;;;;;;73.50;11.13;;;;;;;;;;5053276;28;20236;-65
2022/03/09 00:57:39;;;;;;;107.10;15.07;;;;;;;;;;5051399;28;20203;-65
2022/03/09 01:00:06;;;;;;;92.57;13.17;;;;;;;;;;5049840;28;20674;-66
2022/03/09 01:02:32;;;;;;;129.60;17.83;;;;;;;;;;5051611;28;20537;-66
2022/03/09 01:04:58;;;;;;;87.43;12.63;;;;;;;;;;5035143;28;20183;-65
2022/03/09 01:07:24;;;;;;;86.17;12.43;;;;;;;;;;5047110;28;20233;-65
2022/03/09 01:09:50;;;;;;;114.77;15.57;;;;;;;;;;5052248;28;20209;-65
2022/03/09 01:12:15;;;;;;;100.87;14.30;;;;;;;;;;5045755;28;20631;-65
2022/03/09 01:14:41;;;;;;;119.83;16.47;;;;;;;;;;5051973;28;20640;-65
2022/03/09 01:17:07;;;;;;;94.33;13.70;;;;;;;;;;5051623;28;20703;-65
2022/03/09 01:19:34;;;;;;;75.23;11.10;;;;;;;;;;5049369;28;20227;-65
2022/03/09 01:22:00;;;;;;;84.87;12.27;;;;;;;;;;5052468;28;20187;-65
2022/03/09 01:24:25;;;;;;;99.90;13.97;;;;;;;;;;5052599;28;20251;-65
2022/03/09 01:26:51;;;;;;;97.33;13.77;;;;;;;;;;5047622;28;22191;-66
2022/03/09 01:29:17;;;;;;;88.60;13.03;;;;;;;;;;5051735;28;20194;-65
2022/03/09 01:31:43;;;;;;;126.83;17.10;;;;;;;;;;5047879;28;20217;-65
2022/03/09 01:34:09;;;;;;;88.43;12.77;;;;;;;;;;5050173;28;20186;-65
2022/03/09 01:36:37;;;;;;;80.10;11.80;;;;;;;;;;5045856;28;20244;-65
2022/03/09 01:39:03;;;;;;;78.73;11.57;;;;;;;;;;5053019;28;20179;-65
2022/03/09 01:41:28;;;;;;;76.70;11.30;;;;;;;;;;5052909;28;20194;-65
2022/03/09 01:44:08;;;;;;;113.77;15.67;;;;;;;;;;5046960;28;21055;-65
2022/03/09 01:46:34;;;;;;;69.53;10.50;;;;;;;;;;5040786;28;20230;-65
2022/03/09 01:49:00;;;;;;;90.60;12.93;;;;;;;;;;5033582;28;20226;-65
2022/03/09 01:51:26;;;;;;;74.20;11.13;;;;;;;;;;5047526;28;20356;-65
2022/03/09 01:53:52;;;;;;;111.70;15.53;;;;;;;;;;5048202;28;20187;-65
2022/03/09 01:56:18;;;;;;;95.10;13.47;;;;;;;;;;5047042;28;20187;-65
2022/03/09 01:58:44;;;;;;;102.20;14.53;;;;;;;;;;5047676;28;20192;-65
2022/03/09 02:01:10;;;;;;;71.07;10.73;;;;;;;;;;5052335;28;20210;-65
2022/03/09 02:03:36;;;;;;;104.20;14.50;;;;;;;;;;5047495;28;20719;-65
2022/03/09 02:06:02;;;;;;;83.73;12.20;;;;;;;;;;5031381;28;20750;-65
2022/03/09 02:11:15;;;;;;;90.83;13.07;;;;;;;;;;5029629;28;20270;-65
2022/03/09 02:13:40;;;;;;;103.20;14.57;;;;;;;;;;5051535;28;20183;-65
2022/03/09 02:16:07;;;;;;;64.97;9.90;;;;;;;;;;5049695;28;20277;-65
2022/03/09 02:18:32;;;;;;;80.40;11.83;;;;;;;;;;5050066;28;20655;-65
2022/03/09 02:21:01;;;;;;;87.60;12.63;;;;;;;;;;5043274;28;20202;-65
2022/03/09 02:23:27;;;;;;;93.17;13.20;;;;;;;;;;5051413;28;20253;-66
2022/03/09 02:25:53;;;;;;;108.63;15.43;;;;;;;;;;5047566;28;20625;-65
2022/03/09 02:28:19;;;;;;;78.37;11.63;;;;;;;;;;5053025;28;20207;-65
2022/03/09 02:30:45;;;;;;;111.20;15.37;;;;;;;;;;5053734;28;20225;-65
2022/03/09 02:33:11;;;;;;;79.10;11.70;;;;;;;;;;5048647;28;20197;-65
2022/03/09 02:35:37;;;;;;;81.17;12.17;;;;;;;;;;5049722;28;21529;-65
2022/03/09 02:38:03;;;;;;;71.77;10.73;;;;;;;;;;5051679;28;20206;-65
2022/03/09 02:40:29;;;;;;;101.53;14.37;;;;;;;;;;5049689;28;20183;-65
2022/03/09 02:42:55;;;;;;;89.00;12.70;;;;;;;;;;5047156;28;20655;-65
2022/03/09 02:45:21;;;;;;;134.57;18.03;;;;;;;;;;5046938;28;20498;-65
2022/03/09 02:47:47;;;;;;;107.60;15.07;;;;;;;;;;5045589;28;20796;-65
2022/03/09 02:50:14;;;;;;;99.37;14.40;;;;;;;;;;5055284;28;20359;-65
2022/03/09 02:52:41;;;;;;;85.10;12.50;;;;;;;;;;5055379;28;20187;-65
2022/03/09 02:55:08;;;;;;;67.10;10.63;;;;;;;;;;5051853;28;20178;-65
2022/03/09 02:57:33;;;;;;;52.67;8.83;;;;;;;;;;5055124;28;20618;-65
2022/03/09 02:59:59;;;;;;;75.90;11.40;;;;;;;;;;5049732;28;20206;-65
2022/03/09 03:02:25;;;;;;;127.07;17.67;;;;;;;;;;5041809;28;20618;-65
2022/03/09 03:04:51;;;;;;;102.57;14.40;;;;;;;;;;5054234;28;20697;-65
2022/03/09 03:07:17;;;;;;;88.90;12.83;;;;;;;;;;5051464;28;20676;-65
2022/03/09 03:09:43;;;;;;;79.93;11.80;;;;;;;;;;5054729;28;20186;-65
2022/03/09 03:12:09;;;;;;;62.07;9.97;;;;;;;;;;5052841;28;20190;-65
2022/03/09 03:14:35;;;;;;;45.50;8.10;;;;;;;;;;5056126;28;20188;-65
2022/03/09 03:17:01;;;;;;;65.80;10.33;;;;;;;;;;5050517;28;20200;-65
2022/03/09 03:19:27;;;;;;;88.27;13.27;;;;;;;;;;5057310;28;20205;-65
2022/03/09 03:21:53;;;;;;;89.93;13.10;;;;;;;;;;5048996;28;20190;-65
2022/03/09 03:24:19;;;;;;;75.73;11.47;;;;;;;;;;5058147;28;20190;-65
2022/03/09 03:26:45;;;;;;;83.20;12.30;;;;;;;;;;5048508;28;20635;-65
2022/03/09 03:29:10;;;;;;;61.17;10.13;;;;;;;;;;5055883;28;20190;-65
2022/03/09 03:31:36;;;;;;;106.63;14.67;;;;;;;;;;5052347;28;20648;-65
2022/03/09 03:34:02;;;;;;;62.70;10.33;;;;;;;;;;5056612;28;20194;-65
2022/03/09 03:36:28;;;;;;;70.60;10.93;;;;;;;;;;5042101;28;20185;-65
2022/03/09 03:38:54;;;;;;;67.67;10.60;;;;;;;;;;5057346;28;20202;-65
2022/03/09 03:41:21;;;;;;;57.77;9.37;;;;;;;;;;5051913;28;20191;-65
2022/03/09 03:43:46;;;;;;;71.63;11.07;;;;;;;;;;5053218;28;20182;-65
2022/03/09 03:46:12;;;;;;;47.80;8.40;;;;;;;;;;5055317;28;20202;-65
2022/03/09 03:48:38;;;;;;;120.40;16.87;;;;;;;;;;5052033;28;20515;-65
2022/03/09 03:51:04;;;;;;;67.43;10.97;;;;;;;;;;5050815;28;20325;-65
2022/03/09 03:53:30;;;;;;;84.63;12.67;;;;;;;;;;5038036;28;20620;-66
2022/03/09 03:55:57;;;;;;;122.13;16.73;;;;;;;;;;5049565;28;20186;-66
2022/03/09 03:58:23;;;;;;;77.23;11.67;;;;;;;;;;5051724;28;20209;-65
2022/03/09 04:00:49;;;;;;;118.30;17.23;;;;;;;;;;5051565;28;20183;-65
2022/03/09 04:03:15;;;;;;;80.67;12.97;;;;;;;;;;5052128;28;20255;-65
2022/03/09 04:05:41;;;;;;;146.87;19.77;;;;;;;;;;5049622;28;20237;-65
2022/03/09 04:08:07;;;;;;;73.80;11.67;;;;;;;;;;5055141;28;20226;-65
2022/03/09 04:10:33;;;;;;;63.40;10.63;;;;;;;;;;5051478;28;20861;-65
2022/03/09 04:13:00;;;;;;;121.10;17.37;;;;;;;;;;5056548;28;21062;-65
2022/03/09 04:15:26;;;;;;;67.33;11.20;;;;;;;;;;5052087;28;20536;-65
2022/03/09 04:17:52;;;;;;;92.73;13.77;;;;;;;;;;5054280;28;20454;-65
2022/03/09 04:20:18;;;;;;;66.03;11.20;;;;;;;;;;5052917;28;20188;-65
2022/03/09 04:22:44;;;;;;;100.57;16.00;;;;;;;;;;5054929;28;20194;-65
2022/03/09 04:25:11;;;;;;;95.37;13.87;;;;;;;;;;5054779;28;20195;-65
2022/03/09 04:27:37;;;;;;;80.47;12.73;;;;;;;;;;5051850;28;20256;-65
2022/03/09 04:30:04;;;;;;;81.47;13.07;;;;;;;;;;5053692;28;20211;-65
2022/03/09 04:32:31;;;;;;;103.83;15.47;;;;;;;;;;5052615;28;20678;-65
2022/03/09 04:34:57;;;;;;;90.70;13.53;;;;;;;;;;5050799;28;20205;-65
2022/03/09 04:37:23;;;;;;;74.13;11.87;;;;;;;;;;5053802;28;20206;-65
2022/03/09 04:39:48;;;;;;;81.10;12.73;;;;;;;;;;5054030;28;20695;-65
2022/03/09 04:42:15;;;;;;;82.20;12.83;;;;;;;;;;5048924;28;20194;-66
2022/03/09 04:44:40;;;;;;;87.77;13.40;;;;;;;;;;5057029;28;20183;-65
2022/03/09 04:47:06;;;;;;;66.97;10.93;;;;;;;;;;5035592;28;20198;-65
2022/03/09 04:49:32;;;;;;;89.30;13.93;;;;;;;;;;5048568;28;20187;-65
2022/03/09 04:51:58;;;;;;;111.07;16.30;;;;;;;;;;5051658;28;20189;-65
2022/03/09 04:54:24;;;;;;;80.30;12.53;;;;;;;;;;5051693;28;20270;-65
2022/03/09 04:56:50;;;;;;;103.17;15.27;;;;;;;;;;5044855;28;20815;-65
2022/03/09 04:59:17;;;;;;;91.23;14.20;;;;;;;;;;5051114;28;20192;-65
2022/03/09 05:01:43;;;;;;;108.77;16.30;;;;;;;;;;5036095;28;20201;-66
2022/03/09 05:04:09;;;;;;;85.20;13.67;;;;;;;;;;5051764;28;20913;-65
2022/03/09 05:06:35;;;;;;;110.53;15.70;;;;;;;;;;5045229;28;20226;-65
2022/03/09 05:09:00;;;;;;;76.67;12.07;;;;;;;;;;5052911;28;20183;-65
2022/03/09 05:11:26;;;;;;;90.50;13.40;;;;;;;;;;5048728;28;20229;-65
2022/03/09 05:13:52;;;;;;;119.93;17.13;;;;;;;;;;5053502;28;20703;-65
2022/03/09 05:16:18;;;;;;;53.77;9.37;;;;;;;;;;5049581;28;20218;-65
2022/03/09 05:18:44;;;;;;;98.30;14.57;;;;;;;;;;5054557;28;20658;-65
2022/03/09 05:21:10;;;;;;;74.73;11.77;;;;;;;;;;5046512;28;20186;-65
2022/03/09 05:23:36;;;;;;;93.10;13.90;;;;;;;;;;5051590;28;20187;-66
2022/03/09 05:26:02;;;;;;;74.67;12.47;;;;;;;;;;5050221;28;20244;-65
2022/03/09 05:28:28;;;;;;;71.00;12.93;;;;;;;;;;5038701;28;20209;-66
2022/03/09 05:30:54;;;;;;;124.87;19.30;;;;;;;;;;5050976;28;20258;-65
2022/03/09 05:33:20;;;;;;;123.17;20.67;;;;;;;;;;5049670;28;20251;-65
2022/03/09 05:35:46;;;;;;;157.97;23.27;;;;;;;;;;5049573;28;20187;-65
2022/03/09 05:38:12;;;;;;;72.63;13.03;;;;;;;;;;5052754;28;20972;-65
2022/03/09 05:40:38;;;;;;;114.23;16.90;;;;;;;;;;5050743;28;20194;-66
2022/03/09 05:43:04;;;;;;;100.53;14.97;;;;;;;;;;5048107;28;20202;-64
2022/03/09 05:45:29;;;;;;;72.27;13.17;;;;;;;;;;5053242;28;20264;-65
2022/03/09 05:47:55;;;;;;;93.90;14.73;;;;;;;;;;5050047;28;20207;-65
2022/03/09 05:50:22;;;;;;;105.60;16.70;;;;;;;;;;5047080;28;20332;-65
2022/03/09 05:52:48;;;;;;;101.40;16.23;;;;;;;;;;5037824;28;20595;-65
2022/03/09 05:55:14;;;;;;;101.33;15.77;;;;;;;;;;5052146;28;20187;-65
2022/03/09 05:57:39;;;;;;;104.60;16.17;;;;;;;;;;5047967;28;20666;-65
2022/03/09 06:00:09;;;;;;;85.77;13.87;;;;;;;;;;5055427;28;20256;-65
2022/03/09 06:02:35;;;;;;;146.10;20.80;;;;;;;;;;5050404;28;20679;-65
2022/03/09 06:05:01;;;;;;;80.60;12.83;;;;;;;;;;5047143;28;20270;-65
2022/03/09 06:07:27;;;;;;;79.50;13.17;;;;;;;;;;5051360;28;20253;-65
2022/03/09 06:09:52;;;;;;;74.57;12.80;;;;;;;;;;5052351;28;20182;-65
2022/03/09 06:12:18;;;;;;;87.17;14.00;;;;;;;;;;5047273;28;20190;-65
2022/03/09 06:14:44;;;;;;;107.10;16.97;;;;;;;;;;5054287;28;20183;-65
2022/03/09 06:17:10;;;;;;;98.07;15.57;;;;;;;;;;5036442;28;20684;-65
2022/03/09 06:19:36;;;;;;;136.00;19.33;;;;;;;;;;5049975;28;20186;-65
2022/03/09 06:22:02;;;;;;;84.97;13.60;;;;;;;;;;5051920;28;20183;-65
2022/03/09 06:24:28;;;;;;;52.20;9.90;;;;;;;;;;5052606;28;20509;-65
2022/03/09 06:26:54;;;;;;;81.80;13.37;;;;;;;;;;5048480;28;20236;-65
2022/03/09 06:29:21;;;;;;;92.17;14.40;;;;;;;;;;5053033;28;20207;-65
2022/03/09 06:31:47;;;;;;;99.23;15.57;;;;;;;;;;5034765;28;20242;-65
2022/03/09 06:34:13;;;;;;;52.00;10.20;;;;;;;;;;5051436;28;20285;-65
2022/03/09 06:36:44;;;;;;;85.73;14.50;;;;;;;;;;5055574;28;20325;-65
2022/03/09 06:39:12;;;;;;;93.50;14.93;;;;;;;;;;5054041;28;20181;-65
2022/03/09 06:41:38;;;;;;;149.17;22.20;;;;;;;;;;5043922;28;20197;-66
2022/03/09 06:44:04;;;;;;;90.70;15.33;;;;;;;;;;5053972;28;20188;-66
2022/03/09 06:46:30;;;;;;;85.70;13.80;;;;;;;;;;5051319;28;20206;-67
2022/03/09 06:48:56;;;;;;;98.63;15.63;;;;;;;;;;5050750;28;20290;-68
2022/03/09 06:51:22;;;;;;;65.13;11.77;;;;;;;;;;5051790;28;20313;-66
2022/03/09 06:53:48;;;;;;;116.10;17.40;;;;;;;;;;5034182;28;20621;-66
2022/03/09 06:56:14;;;;;;;109.83;16.87;;;;;;;;;;5047011;28;20221;-66
2022/03/09 06:58:40;;;;;;;138.20;20.17;;;;;;;;;;5045960;28;20893;-66
2022/03/09 07:01:06;;;;;;;100.50;15.70;;;;;;;;;;5050717;28;20305;-66
2022/03/09 07:03:32;;;;;;;90.90;14.73;;;;;;;;;;5046845;28;20639;-66
2022/03/09 07:05:57;;;;;;;113.20;17.00;;;;;;;;;;5038443;28;20781;-66
2022/03/09 07:08:23;;;;;;;94.37;14.77;;;;;;;;;;5051201;28;20218;-67
2022/03/09 07:10:50;;;;;;;159.23;24.07;;;;;;;;;;5045587;28;20823;-66
2022/03/09 07:13:16;;;;;;;112.47;17.33;;;;;;;;;;5048567;28;20195;-65
2022/03/09 07:15:42;;;;;;;227.53;33.43;;;;;;;;;;5045811;28;20904;-67
2022/03/09 07:18:08;;;;;;;94.73;17.57;;;;;;;;;;5048321;28;20295;-69
2022/03/09 07:20:34;;;;;;;98.43;18.27;;;;;;;;;;5042250;28;20268;-68
2022/03/09 07:23:00;;;;;;;215.50;31.20;;;;;;;;;;5025836;28;20183;-70
2022/03/09 07:25:26;;;;;;;78.77;15.03;;;;;;;;;;5027021;28;20195;-69
2022/03/09 07:27:52;;;;;;;149.67;24.90;;;;;;;;;;5048212;28;20244;-66
2022/03/09 07:30:18;;;;;;;91.10;17.00;;;;;;;;;;5030254;28;20204;-68
2022/03/09 07:32:44;;;;;;;147.80;23.20;;;;;;;;;;5030746;28;20642;-69
2022/03/09 07:35:10;;;;;;;156.23;25.33;;;;;;;;;;5049444;28;20374;-68
2022/03/09 07:37:37;;;;;;;115.50;20.23;;;;;;;;;;5047194;28;20215;-68
2022/03/09 07:40:04;;;;;;;74.07;15.77;;;;;;;;;;5040340;28;20187;-68
2022/03/09 07:42:30;;;;;;;123.73;21.07;;;;;;;;;;5044163;28;20207;-66
2022/03/09 07:44:56;;;;;;;119.00;19.73;;;;;;;;;;5042744;28;20274;-69
2022/03/09 07:47:22;;;;;;;214.37;30.73;;;;;;;;;;5039043;28;20237;-69
2022/03/09 07:49:48;;;;;;;148.07;25.00;;;;;;;;;;5050403;28;20294;-71
2022/03/09 07:52:14;;;;;;;96.37;17.80;;;;;;;;;;5049619;28;20205;-70
2022/03/09 07:54:40;;;;;;;149.53;23.60;;;;;;;;;;5047670;28;20187;-70
2022/03/09 07:57:06;;;;;;;126.13;20.47;;;;;;;;;;5040841;28;20252;-70
2022/03/09 07:59:32;;;;;;;56.23;11.73;;;;;;;;;;5059107;28;21237;-70
2022/03/09 08:01:58;;;;;;;98.53;17.50;;;;;;;;;;5054749;28;20183;-70
2022/03/09 08:04:25;;;;;;;167.83;26.93;;;;;;;;;;5045578;28;20296;-71
2022/03/09 08:06:51;;;;;;;88.33;16.57;;;;;;;;;;5050404;28;20253;-71
2022/03/09 08:09:18;;;;;;;89.80;17.30;;;;;;;;;;5058878;28;20190;-69
2022/03/09 08:11:44;;;;;;;139.90;23.47;;;;;;;;;;5054824;28;20195;-69
2022/03/09 08:14:10;;;;;;;144.27;24.10;;;;;;;;;;5045277;28;20179;-71
2022/03/09 08:16:36;;;;;;;134.77;23.37;;;;;;;;;;5054748;28;20192;-69
2022/03/09 08:19:03;;;;;;;157.27;25.50;;;;;;;;;;5053403;28;20183;-73
2022/03/09 08:21:29;;;;;;;97.37;17.97;;;;;;;;;;5053526;28;20207;-72
2022/03/09 08:23:55;;;;;;;109.60;20.23;;;;;;;;;;5055501;28;21215;-71
2022/03/09 08:26:21;;;;;;;152.90;26.87;;;;;;;;;;5050762;28;20622;-71
2022/03/09 08:28:47;;;;;;;120.60;23.40;;;;;;;;;;5049142;28;20194;-72
2022/03/09 08:31:13;;;;;;;91.20;19.23;;;;;;;;;;5054093;28;20786;-71
2022/03/09 08:33:39;;;;;;;128.53;24.33;;;;;;;;;;5053912;28;20186;-72
2022/03/09 08:36:05;;;;;;;88.47;18.83;;;;;;;;;;5031946;28;20190;-71
2022/03/09 08:38:31;;;;;;;128.07;25.03;;;;;;;;;;5056449;28;20218;-71
2022/03/09 08:40:57;;;;;;;167.13;29.13;;;;;;;;;;5038113;28;20188;-71
2022/03/09 08:43:23;;;;;;;253.23;46.57;;;;;;;;;;5051788;28;20235;-71
2022/03/09 08:45:49;;;;;;;115.27;20.37;;;;;;;;;;5048281;28;20187;-70
2022/03/09 08:48:15;;;;;;;75.30;13.73;;;;;;;;;;5047526;28;20271;-70
2022/03/09 08:50:42;;;;;;;224.17;32.70;;;;;;;;;;5039129;28;20789;-72
2022/03/09 08:53:09;;;;;;;99.53;16.83;;;;;;;;;;5050218;28;20232;-70
2022/03/09 08:55:35;;;;;;;134.80;21.27;;;;;;;;;;5045777;28;20175;-72
2022/03/09 08:58:01;;;;;;;108.80;17.63;;;;;;;;;;5031430;28;20667;-73
2022/03/09 09:00:28;;;;;;;98.87;16.97;;;;;;;;;;5047393;28;20190;-70
2022/03/09 09:02:55;;;;;;;107.13;17.63;;;;;;;;;;5052234;28;20191;-71
2022/03/09 09:05:22;;;;;;;79.43;14.03;;;;;;;;;;5049669;28;20262;-71
2022/03/09 09:07:48;;;;;;;126.77;19.63;;;;;;;;;;5051981;28;20260;-70
2022/03/09 09:10:14;;;;;;;74.03;13.83;;;;;;;;;;5040742;28;20203;-69
2022/03/09 09:12:40;;;;;;;128.90;19.37;;;;;;;;;;5028946;28;20249;-72
2022/03/09 09:15:07;;;;;;;103.30;16.13;;;;;;;;;;5042191;28;20795;-67
2022/03/09 09:17:34;;;;;;;103.90;16.30;;;;;;;;;;5052674;28;20323;-70
2022/03/09 09:20:00;;;;;;;71.73;12.30;;;;;;;;;;5036574;28;20195;-70
2022/03/09 09:22:26;;;;;;;77.00;12.97;;;;;;;;;;5031873;28;20217;-70
2022/03/09 09:24:52;;;;;;;138.07;20.40;;;;;;;;;;5054201;28;21108;-70
2022/03/09 09:27:18;;;;;;;52.67;10.50;;;;;;;;;;5045105;28;20211;-74
2022/03/09 09:29:45;;;;;;;116.70;17.53;;;;;;;;;;5045094;28;20202;-72
2022/03/09 09:32:11;;;;;;;74.77;12.73;;;;;;;;;;5041920;28;20576;-71
2022/03/09 09:34:37;;;;;;;106.23;16.60;;;;;;;;;;5042182;28;20197;-69
2022/03/09 09:37:03;;;;;;;242.80;33.07;;;;;;;;;;5023780;28;20568;-72
2022/03/09 09:39:29;;;;;;;93.43;14.50;;;;;;;;;;5043910;28;20224;-70
2022/03/09 09:41:57;;;;;;;84.47;13.10;;;;;;;;;;5045118;28;20186;-72
2022/03/09 09:44:24;;;;;;;74.13;12.77;;;;;;;;;;5017380;28;20199;-72
2022/03/09 09:46:50;;;;;;;145.50;20.43;;;;;;;;;;5031839;28;20206;-72
2022/03/09 09:49:17;;;;;;;128.03;18.87;;;;;;;;;;5042598;28;20764;-72
2022/03/09 09:51:45;;;;;;;138.83;20.33;;;;;;;;;;5043420;28;20219;-72
2022/03/09 09:54:13;;;;;;;91.63;14.47;;;;;;;;;;5049894;28;20187;-72
2022/03/09 09:56:40;;;;;;;88.27;14.00;;;;;;;;;;5045144;28;20198;-72
2022/03/09 09:59:06;;;;;;;89.27;14.27;;;;;;;;;;5057513;28;20579;-73
2022/03/09 10:01:33;;;;;;;69.03;12.20;;;;;;;;;;5049002;28;20211;-73
2022/03/09 10:03:59;;;;;;;77.93;13.13;;;;;;;;;;5053133;28;20182;-73
2022/03/09 10:06:25;;;;;;;73.93;12.77;;;;;;;;;;5048770;28;20237;-70
2022/03/09 10:09:00;;;;;;;126.67;18.67;;;;;;;;;;5051687;28;20688;-71
2022/03/09 10:11:43;;;;;;;128.17;18.67;;;;;;;;;;5048500;28;20203;-70
2022/03/09 10:14:10;;;;;;;192.60;25.70;;;;;;;;;;5035148;28;20632;-70
2022/03/09 10:16:36;;;;;;;95.43;14.37;;;;;;;;;;5041579;28;23087;-70
2022/03/09 10:19:02;;;;;;;94.53;14.03;;;;;;;;;;5044057;28;20586;-70
2022/03/09 10:21:35;;;;;;;73.83;12.77;;;;;;;;;;5048340;28;20187;-71
2022/03/09 10:24:01;;;;;;;101.07;16.00;;;;;;;;;;5036214;28;20186;-70
2022/03/09 10:26:38;;;;;;;57.90;10.93;;;;;;;;;;5052267;28;20305;-70
2022/03/09 10:29:06;;;;;;;56.90;10.57;;;;;;;;;;5059986;28;20474;-71
2022/03/09 10:31:32;;;;;;;81.00;13.77;;;;;;;;;;5054772;28;20282;-70
2022/03/09 10:34:09;;;;;;;64.83;11.87;;;;;;;;;;5031865;28;20748;-70
2022/03/09 10:36:35;;;;;;;66.07;11.47;;;;;;;;;;5048096;28;20214;-69
2022/03/09 10:39:14;;;;;;;58.77;10.03;;;;;;;;;;5051890;28;20187;-69
2022/03/09 10:41:40;;;;;;;74.13;12.57;;;;;;;;;;5054466;28;20196;-70
2022/03/09 10:44:06;;;;;;;68.13;11.10;;;;;;;;;;5051065;28;20187;-69
2022/03/09 10:46:41;;;;;;;50.10;9.33;;;;;;;;;;5061887;28;20222;-70
2022/03/09 10:49:08;;;;;;;41.63;8.43;;;;;;;;;;5056833;28;20183;-69
2022/03/09 10:51:38;;;;;;;58.63;11.23;;;;;;;;;;5054347;28;20297;-69
2022/03/09 10:54:23;;;;;;;64.13;11.17;;;;;;;;;;5042437;28;20183;-70
2022/03/09 10:56:51;;;;;;;76.13;12.00;;;;;;;;;;5051053;28;20245;-69
2022/03/09 10:59:19;;;;;;;92.70;14.73;;;;;;;;;;5036240;28;20272;-70
2022/03/09 11:02:01;;;;;;;100.57;15.67;;;;;;;;;;5042216;28;21082;-73
2022/03/09 11:04:27;;;;;;;72.47;12.63;;;;;;;;;;5046510;28;20198;-71
2022/03/09 11:06:55;;;;;;;113.70;17.77;;;;;;;;;;5044078;28;20218;-72
2022/03/09 11:09:21;;;;;;;98.30;15.70;;;;;;;;;;5028569;28;20194;-72
2022/03/09 11:11:48;;;;;;;162.80;22.43;;;;;;;;;;5045472;28;20294;-72
2022/03/09 11:14:15;;;;;;;60.50;10.73;;;;;;;;;;5033883;28;20274;-72
2022/03/09 11:16:44;;;;;;;103.70;16.33;;;;;;;;;;5044189;28;20211;-72
2022/03/09 11:19:10;;;;;;;114.37;17.13;;;;;;;;;;5027894;28;20230;-72
2022/03/09 11:21:37;;;;;;;120.27;17.57;;;;;;;;;;5033548;28;20187;-72
2022/03/09 11:24:08;;;;;;;116.13;17.60;;;;;;;;;;5033638;28;20201;-75
2022/03/09 11:26:36;;;;;;;124.17;18.37;;;;;;;;;;5043977;28;20497;-70
2022/03/09 11:29:06;;;;;;;141.90;20.93;;;;;;;;;;5043374;28;20356;-74
2022/03/09 11:31:59;;;;;;;113.23;17.53;;;;;;;;;;5021674;28;20503;-73
2022/03/09 11:34:38;;;;;;;141.00;20.60;;;;;;;;;;5033672;28;20192;-74
2022/03/09 11:37:07;;;;;;;42.47;9.00;;;;;;;;;;5036901;28;20270;-72
2022/03/09 11:39:34;;;;;;;52.80;10.33;;;;;;;;;;5060369;28;20210;-73
2022/03/09 11:42:23;;;;;;;73.33;12.73;;;;;;;;;;5049028;28;20183;-68
2022/03/09 11:44:49;;;;;;;103.40;15.60;;;;;;;;;;5035818;28;20292;-70
2022/03/09 11:47:16;;;;;;;130.50;19.03;;;;;;;;;;5054765;28;20213;-70
2022/03/09 11:49:43;;;;;;;146.80;20.60;;;;;;;;;;5055540;28;20195;-70
2022/03/09 11:52:15;;;;;;;63.07;10.97;;;;;;;;;;5056421;28;20202;-71
2022/03/09 11:54:42;;;;;;;62.70;10.50;;;;;;;;;;5057348;28;20286;-71
2022/03/09 11:57:08;;;;;;;51.43;9.50;;;;;;;;;;5031910;28;20246;-69
2022/03/09 11:59:34;;;;;;;80.37;12.57;;;;;;;;;;5059500;28;20185;-70
2022/03/09 12:02:00;;;;;;;72.70;11.50;;;;;;;;;;5045664;28;20191;-67
2022/03/09 12:04:51;;;;;;;80.27;12.63;;;;;;;;;;5048684;28;20532;-67
2022/03/09 12:07:33;;;;;;;79.77;13.50;;;;;;;;;;5038970;28;20206;-66
2022/03/09 12:10:00;;;;;;;71.00;12.10;;;;;;;;;;5037672;28;20191;-66
2022/03/09 12:12:27;;;;;;;46.80;9.63;;;;;;;;;;5038416;28;20270;-66
2022/03/09 12:15:05;;;;;;;123.70;19.37;;;;;;;;;;5041314;28;20641;-67
2022/03/09 12:17:37;;;;;;;100.53;16.27;;;;;;;;;;5047781;28;20214;-66
2022/03/09 12:20:15;;;;;;;61.97;12.20;;;;;;;;;;5048567;28;20187;-66
2022/03/09 12:22:57;;;;;;;117.83;22.00;;;;;;;;;;5051874;28;20199;-67
2022/03/09 12:25:43;;;;;;;131.27;26.83;;;;;;;;;;5054813;28;20916;-67
2022/03/09 12:28:24;;;;;;;127.10;24.80;;;;;;;;;;5054277;28;20214;-66
2022/03/09 12:30:59;;;;;;;126.70;21.63;;;;;;;;;;5053588;28;20560;-68
2022/03/09 12:33:27;;;;;;;79.77;15.70;;;;;;;;;;5060372;28;20224;-67
2022/03/09 12:35:53;;;;;;;132.20;23.90;;;;;;;;;;5056206;28;20183;-67
2022/03/09 12:38:19;;;;;;;93.40;18.07;;;;;;;;;;5058032;28;20213;-67
2022/03/09 12:40:45;;;;;;;163.30;27.40;;;;;;;;;;5053280;28;20298;-67
2022/03/09 12:43:13;;;;;;;64.83;12.73;;;;;;;;;;5059012;28;20252;-67
2022/03/09 12:45:52;;;;;;;100.63;18.80;;;;;;;;;;5054661;28;20213;-67
2022/03/09 12:48:21;;;;;;;116.13;19.33;;;;;;;;;;5058799;28;20219;-67
2022/03/09 12:50:48;;;;;;;101.00;17.93;;;;;;;;;;5054879;28;20243;-67
2022/03/09 12:53:20;;;;;;;128.82;23.00;;;;;;;;;;5035902;28;20233;-67
2022/03/09 12:55:47;;;;;;;170.00;27.45;;;;;;;;;;5051494;28;20183;-67
2022/03/09 12:58:21;;;;;;;67.57;13.87;;;;;;;;;;5046475;28;20204;-67
2022/03/09 13:00:47;;;;;;;122.03;22.33;;;;;;;;;;5056566;28;20184;-67
2022/03/09 13:03:13;;;;;;;99.07;18.98;;;;;;;;;;5055852;28;20189;-67
2022/03/09 13:05:39;;;;;;;149.57;24.75;;;;;;;;;;5046989;28;20191;-67
2022/03/09 13:08:06;;;;;;;102.17;17.50;;;;;;;;;;5045930;28;20199;-67
2022/03/09 13:10:49;;;;;;;120.10;22.43;;;;;;;;;;5046990;28;20687;-67
2022/03/09 13:13:15;;;;;;;174.17;33.67;;;;;;;;;;5048286;28;20190;-67
2022/03/09 13:15:43;;;;;;;89.80;13.43;;;;;;;;;;5049129;28;20179;-66
2022/03/09 13:18:10;;;;;;;102.18;15.15;;;;;;;;;;5047609;28;20741;-67
2022/03/09 13:20:37;;;;;;;71.60;11.57;;;;;;;;;;5047591;28;20191;-67
2022/03/09 13:23:03;;;;;;;60.38;10.18;;;;;;;;;;5047838;28;20198;-68
2022/03/09 13:25:32;;;;;;;71.50;11.70;;;;;;;;;;5047816;28;20696;-67
2022/03/09 13:28:02;;;;;;;138.25;20.33;;;;;;;;;;5024695;28;20292;-67
2022/03/09 13:30:29;;;;;;;53.03;9.27;;;;;;;;;;5057785;28;20704;-67
2022/03/09 13:32:56;;;;;;;67.38;12.23;;;;;;;;;;5057200;28;20949;-67
2022/03/09 13:35:23;;;;;;;54.40;10.23;;;;;;;;;;5059680;28;20234;-67
2022/03/09 13:37:49;;;;;;;52.83;9.98;;;;;;;;;;5052969;28;20208;-68
2022/03/09 13:40:16;;;;;;;30.50;6.60;;;;;;;;;;5059510;28;20279;-68
2022/03/09 13:42:44;;;;;;;72.00;12.15;;;;;;;;;;5052744;28;20259;-68
2022/03/09 13:45:23;;;;;;;54.55;10.38;;;;;;;;;;5050084;28;20183;-68
2022/03/09 13:47:56;;;;;;;51.60;9.27;;;;;;;;;;5056372;28;20210;-68
2022/03/09 13:50:22;;;;;;;46.13;8.55;;;;;;;;;;5062279;28;20221;-67
2022/03/09 13:52:48;;;;;;;62.38;11.30;;;;;;;;;;5061182;28;20678;-68
2022/03/09 13:55:19;;;;;;;71.55;13.27;;;;;;;;;;5040704;28;20218;-68
2022/03/09 13:57:45;;;;;;;68.47;12.52;;;;;;;;;;5053949;28;20205;-68
2022/03/09 14:00:12;;;;;;;41.03;8.48;;;;;;;;;;5062155;28;20175;-68
2022/03/09 14:02:38;;;;;;;101.65;17.35;;;;;;;;;;5050298;28;20192;-68
2022/03/09 14:05:04;;;;;;;45.65;9.05;;;;;;;;;;5049519;28;20681;-68
2022/03/09 14:07:39;;;;;;;54.42;10.60;;;;;;;;;;5064576;28;20259;-68
2022/03/09 14:10:24;;;;;;;72.82;13.45;;;;;;;;;;5052166;28;20202;-67
2022/03/09 14:12:50;;;;;;;71.88;13.35;;;;;;;;;;5050678;28;20192;-69
2022/03/09 14:15:16;;;;;;;92.15;16.33;;;;;;;;;;5054856;28;20213;-69
2022/03/09 14:17:42;;;;;;;63.42;12.43;;;;;;;;;;5055012;28;20396;-69